Boyd Deep Canyon Reserve, California Weather observations

Data are for 10 minute period ending at time listed.
 Day   Time   Solar   Ave.   Ave.  Ave.  Vector  Max.   Baro.   Total    
  of    of     Rad.   Air    Rel.  Wind   Wind   Wind  Press.  Precip.   
Year   Day            Temp.  Hum.  Speed  Dir.   Gust                    
2017   (PST)  Kw/m2    F      %     mph   deg.    mph    mb.     in.     
-------------------------------------------------------------------------
 293    0:00   0.00   69.5    46    2.5    62     4.8   971.6    0.00 
 293    0:10   0.00   68.9    48    0.3    11     2.4   971.7    0.00 
 293    0:20   0.00   68.5    48    1.8   184     4.1   971.8    0.00 
 293    0:30   0.00   68.8    47    1.5   225     3.7   972.1    0.00 
 293    0:40   0.00   68.3    48    3.2    41     9.3   972.2    0.00 
 293    0:50   0.00   70.6    42    6.1   154    22.4   972.0    0.00 
 293    1:00   0.00   75.4    30   12.1   174    21.3   972.0    0.00 
 293    1:10   0.00   75.1    31   16.8   166    27.1   971.8    0.00 
 293    1:20   0.00   73.8    35    4.9   315    18.0   972.0    0.00 
 293    1:30   0.00   69.7    48    5.7   320    13.7   972.3    0.00 
 293    1:40   0.00   68.3    52    2.3     6     5.8   972.3    0.00 
 293    1:50   0.00   67.4    54    1.5    43     4.7   971.9    0.00 
 293    2:00   0.00   67.1    55    1.8   189     6.1   971.8    0.00 
 293    2:10   0.00   67.2    54    1.0   242     5.4   971.7    0.00 
 293    2:20   0.00   66.8    54    1.7   194     4.7   971.7    0.00 
 293    2:30   0.00   67.5    53    0.5    62     2.8   971.5    0.00 
 293    2:40   0.00   67.1    53    2.7    59     4.4   971.4    0.00 
 293    2:50   0.00   66.8    54    2.6   314     7.5   971.5    0.00 
 293    3:00   0.00   68.6    49    5.1   242    13.3   971.6    0.00 
 293    3:10   0.00   71.5    42   12.4   248    34.8   971.3    0.00 
 293    3:20   0.00   72.0    42   18.2   225    34.2   971.0    0.00 
 293    3:30   0.00   71.5    43   18.6   246    32.7   971.1    0.00 
 293    3:40   0.00   71.1    45   17.9   222    30.2   971.1    0.00 
 293    3:50   0.00   71.2    45   16.8   212    32.4   971.4    0.00 
 293    4:00   0.00   71.8    43   14.9   217    32.7   971.4    0.00 
 293    4:10   0.00   72.7    41   15.7   213    31.6   971.1    0.00 
 293    4:20   0.00   73.3    39   18.1   208    30.4   971.1    0.00 
 293    4:30   0.00   73.6    39   17.0   211    26.5   971.4    0.00 
 293    4:40   0.00   73.1    40   13.1   199    26.1   971.5    0.00 
 293    4:50   0.00   72.7    41   15.5   211    32.0   971.6    0.00 
 293    5:00   0.00   72.5    42   14.1   211    35.3   971.7    0.00 
 293    5:10   0.00   72.0    43   17.6   209    27.8   971.8    0.00 
 293    5:20   0.00   70.4    48   21.4   203    37.4   971.7    0.00 
 293    5:30   0.00   69.8    49   22.0   209    39.0   971.8    0.00 
 293    5:40   0.00   70.8    45   21.9   211    44.1   971.8    0.00 
 293    5:50   0.00   70.8    46   19.8   205    36.2   972.2    0.00 
 293    6:00   0.00   70.3    48   22.2   197    35.2   972.1    0.00 
 293    6:10   0.01   70.2    48   29.9   198    44.5   972.1    0.00 
 293    6:20   0.01   70.4    47   23.5   182    38.9   972.5    0.00 
 293    6:30   0.04   70.2    48   26.5   177    49.4   972.5    0.00 
 293    6:40   0.08   70.3    48   26.1   175    41.5   972.7    0.00 
 293    6:50   0.12   70.3    47   22.6   180    38.1   973.1    0.00 
 293    7:00   0.16   70.1    48   28.8   176    48.7   973.0    0.00 
 293    7:10   0.19   70.3    47   31.5   180    52.2   972.9    0.00 
 293    7:20   0.23   70.4    47   30.6   180    46.6   972.9    0.00 
 293    7:30   0.26   70.7    46   31.5   176    52.6   973.2    0.00 
 293    7:40   0.30   70.8    46   26.1   184    41.8   973.5    0.00 
 293    7:50   0.33   70.6    47   26.4   191    43.0   973.7    0.00 
 293    8:00   0.35   70.3    47   26.8   193    49.5   973.7    0.00 
 293    8:10   0.40   70.6    45   25.7   193    41.7   973.5    0.00 
 293    8:20   0.43   70.4    45   24.8   179    45.2   973.4    0.00 
 293    8:30   0.44   70.9    43   20.2   177    36.7   973.6    0.00 
 293    8:40   0.47   71.3    41   21.9   176    38.1   973.6    0.00 
 293    8:50   0.50   72.6    37   18.3   172    29.3   973.7    0.00 
 293    9:00   0.53   73.9    34   14.2   175    24.9   973.7    0.00 
 293    9:10   0.55   74.0    34   14.0   177    23.0   973.9    0.00 
 293    9:20   0.57   74.9    33   14.9   172    24.9   973.9    0.00 
 293    9:30   0.60   74.7    34    7.2   185    16.9   973.8    0.00 
 293    9:40   0.62   76.1    31    6.2   170    12.9   973.7    0.00 
 293    9:50   0.64   77.1    30    5.4   201    10.3   973.4    0.00 
 293   10:00   0.66   76.5    30    3.6   323     7.2   973.3    0.00 
 293   10:10   0.67   76.6    34   11.4   338    16.6   973.3    0.00 
 293   10:20   0.68   76.3    35    7.3   345    12.6   973.3    0.00 
 293   10:30   0.70   76.8    33    7.5   345    12.0   973.5    0.00 
 293   10:40   0.71   76.8    32    7.5     2    12.4   973.6    0.00 
 293   10:50   0.72   78.0    31    6.6   360    10.9   973.6    0.00 
 293   11:00   0.73   78.3    30    6.0   342    11.1   973.6    0.00 
 293   11:10   0.73   78.5    30    6.3   353    12.7   973.4    0.00 
 293   11:20   0.71   79.2    29    6.1    10    12.8   973.0    0.00 
 293   11:30   0.71   78.6    27    8.9   334    22.1   972.8    0.00 
 293   11:40   0.71   78.9    26    8.8   260    20.2   972.8    0.00 
 293   11:50   0.70   79.4    25    5.1   180    11.1   972.8    0.00 
 293   12:00   0.72   80.2    25    2.6   225     8.9   972.9    0.00 
 293   12:10   0.70   80.0    25    5.0   202    14.9   972.8    0.00 
 293   12:20   0.72   79.9    24    4.4   224    18.9   972.5    0.00 
 293   12:30   0.72   80.0    23    6.7   215    15.9   972.3    0.00 
 293   12:40   0.70   79.4    23    8.3   277    16.2   972.0    0.00 
 293   12:50   0.70   80.1    23    7.0     7    14.3   971.7    0.00 
 293   13:00   0.68   80.6    21    8.5   298    21.5   971.8    0.00 
 293   13:10   0.67   80.8    22    3.2   300     8.0   971.8    0.00 
 293   13:20   0.66   81.4    23    7.6   176    21.0   971.7    0.00 
 293   13:30   0.70   79.4    24    9.5   179    23.3   971.6    0.00 
 293   13:40   0.69   80.4    21   12.4   183    32.0   971.5    0.00 
 293   13:50   0.59   80.5    22   13.0   184    32.0   971.5    0.00 
 293   14:00   0.56   79.4    24   15.5   191    31.2   971.5    0.00 
 293   14:10   0.54   79.4    24   11.4   210    20.5   971.6    0.00 
 293   14:20   0.51   78.6    24   14.6   211    28.5   971.7    0.00 
 293   14:30   0.48   78.7    24   10.7   233    21.2   971.8    0.00 
 293   14:40   0.45   79.4    23    6.7   215    14.2   971.7    0.00 
 293   14:50   0.42   79.0    23    7.7   113    19.5   971.5    0.00 
 293   15:00   0.38   78.8    24    5.9   180    21.1   971.5    0.00 
 293   15:10   0.35   78.6    25   13.8   203    27.5   971.5    0.00 
 293   15:20   0.32   78.2    26   12.8   218    27.0   971.5    0.00 
 293   15:30   0.29   77.5    26   14.5   215    27.8   971.5    0.00 
 293   15:40   0.25   77.6    26    9.4   204    16.1   971.6    0.00 
 293   15:50   0.14   77.5    27   11.9   192    29.1   971.7    0.00 
 293   16:00   0.03   74.6    31   12.2   176    26.0   971.7    0.00 
 293   16:10   0.02   74.2    31   16.7   193    30.6   971.1    0.00 
 293   16:20   0.01   73.7    32   14.1   181    28.4   971.0    0.00 
 293   16:30   0.01   73.8    32   13.2   194    29.1   970.9    0.00 
 293   16:40   0.01   73.5    32   12.5   204    21.3   971.1    0.00 
 293   16:50   0.01   73.7    31   11.0   195    19.9   971.2    0.00 
 293   17:00   0.01   73.2    32   11.2   194    22.2   971.4    0.00 
 293   17:10   0.00   72.7    34   13.9   200    27.7   971.5    0.00 
 293   17:20   0.00   72.1    35   15.6   183    30.8   971.4    0.00 
 293   17:30   0.00   72.0    35   14.1   221    24.9   971.4    0.00 
 293   17:40   0.00   71.7    36   15.3   224    27.9   971.6    0.00 
 293   17:50   0.00   71.6    36   15.3   205    28.0   971.6    0.00 
 293   18:00   0.00   71.6    36   13.2   199    31.7   971.7    0.00 
 293   18:10   0.00   71.5    36   14.4   210    25.9   972.0    0.00 
 293   18:20   0.00   71.2    37   13.8   192    23.8   972.1    0.00 
 293   18:30   0.00   71.0    37   13.8   202    25.9   972.1    0.00 
 293   18:40   0.00   71.2    36   11.4   182    20.4   972.1    0.00 
 293   18:50   0.00   71.1    37   14.9   195    30.0   972.0    0.00 
 293   19:00   0.00   70.8    38   12.6   192    21.1   972.2    0.00 
 293   19:10   0.00   70.6    38   14.3   179    23.1   972.1    0.00 
 293   19:20   0.00   70.8    38   14.0   197    22.7   972.2    0.00 
 293   19:30   0.00   70.7    38   14.4   185    21.5   972.3    0.00 
 293   19:40   0.00   70.6    38   14.9   185    24.3   972.3    0.00 
 293   19:50   0.00   70.3    39   14.8   175    23.4   972.4    0.00 
 293   20:00   0.00   69.7    41   16.9   175    24.0   972.6    0.00 
 293   20:10   0.00   69.8    40   14.5   186    28.9   972.8    0.00 
 293   20:20   0.00   69.6    41   15.8   176    23.1   972.7    0.00 
 293   20:30   0.00   69.0    42   13.8   174    20.8   972.9    0.00 
 293   20:40   0.00   69.0    42   13.8   188    22.4   973.0    0.00 
 293   20:50   0.00   69.4    40   12.8   206    26.2   973.0    0.00 
 293   21:00   0.00   69.3    40   11.0   201    22.6   973.1    0.00 
 293   21:10   0.00   69.2    40   12.9   177    19.1   973.2    0.00 
 293   21:20   0.00   69.2    40    9.6   201    19.1   973.3    0.00 
 293   21:30   0.00   69.5    38   12.9   206    21.0   973.3    0.00 
 293   21:40   0.00   69.7    36    9.6   213    21.2   973.5    0.00 
 293   21:50   0.00   69.6    37   10.9   215    19.7   973.6    0.00 
 293   22:00   0.00   69.6    36    7.2   185    11.5   973.7    0.00 
 293   22:10   0.00   69.6    36    6.8   208    15.3   973.8    0.00 
 293   22:20   0.00   69.2    39    4.0   245    12.3   974.1    0.00 
 293   22:30   0.00   69.3    37    8.5   227    16.6   974.0    0.00 
 293   22:40   0.00   69.0    39    4.2   242     7.2   974.0    0.00 
 293   22:50   0.00   68.4    39    3.0   246     6.9   973.9    0.00 
 293   23:00   0.00   67.8    41    1.7    53     4.1   973.9    0.00 
 293   23:10   0.00   66.8    44    2.9    32     8.3   974.2    0.00 
 293   23:20   0.00   67.4    44    4.5   267     9.1   974.5    0.00 
 293   23:30   0.00   67.1    43    2.1   302     5.1   974.8    0.00 
 293   23:40   0.00   67.0    46    4.4   282     6.6   974.9    0.00 
 293   23:50   0.00   66.7    47    3.5   296     6.0   975.2    0.00 

Return to Boyd Deep Canyon Reserve graphs page.


Western Regional Climate Center,wrcc@dri.edu